Time;durP1;ratioP1;P1;durP2;ratioP2;P2;SDS_P1;SDS_P2;PMS_P1;PMS_P2;Temp;Humidity;BMP_temperature;BMP_pressure;BME280_temperature;BME280_humidity;BME280_pressure;Samples;Min_cycle;Max_cycle;Signal;HPM_P1;HPM_P2
2022/08/18 00:06:56;;;;;;;;;;;;;;;;;;21078675;28;19975;-57
2022/08/18 00:16:57;;;;;;;;;;;;;;;;;;21079535;28;20390;-62
2022/08/18 00:27:00;;;;;;;;;;;;;;;;;;21077811;28;19924;-76
2022/08/18 00:37:02;;;;;;;;;;;;;;;;;;21093460;28;20290;-54
2022/08/18 00:47:04;;;;;;;;;;;;;;;;;;21094064;28;19978;-61
2022/08/18 00:57:06;;;;;;;;;;;;;;;;;;21093600;28;20017;-76
2022/08/18 01:07:07;;;;;;;;;;;;;;;;;;21092668;28;20302;-64
2022/08/18 01:27:31;;;;;;;;;;;;;;;;;;21090659;28;19930;-64
2022/08/18 01:37:33;;;;;;;;;;;;;;;;;;21090208;28;20331;-63
2022/08/18 01:47:39;;;;;;;;;;;;;;;;;;21088366;28;19931;-68
2022/08/18 01:57:43;;;;;;;;;;;;;;;;;;21089192;28;20008;-75
2022/08/18 02:07:50;;;;;;;;;;;;;;;;;;21087368;28;20014;-75
2022/08/18 02:17:54;;;;;;;;;;;;;;;;;;21086504;28;19924;-76
2022/08/18 02:27:58;;;;;;;;;;;;;;;;;;21088002;28;19931;-59
2022/08/18 02:38:01;;;;;;;;;;;;;;;;;;21084954;28;19977;-69
2022/08/18 02:48:06;;;;;;;;;;;;;;;;;;21083918;28;19981;-67
2022/08/18 02:58:12;;;;;;;;;;;;;;;;;;21081094;28;19924;-72
2022/08/18 03:08:14;;;;;;;;;;;;;;;;;;21082000;28;19925;-61
2022/08/18 03:18:16;;;;;;;;;;;;;;;;;;21081525;28;20387;-62
2022/08/18 03:28:18;;;;;;;;;;;;;;;;;;21081891;28;19947;-54
2022/08/18 03:38:20;;;;;;;;;;;;;;;;;;21080143;28;19977;-66
2022/08/18 03:48:22;;;;;;;;;;;;;;;;;;21079197;28;19924;-58
2022/08/18 03:58:24;;;;;;;;;;;;;;;;;;21078648;28;19931;-54
2022/08/18 04:08:25;;;;;;;;;;;;;;;;;;21078691;28;19932;-74
2022/08/18 04:18:28;;;;;;;;;;;;;;;;;;21080033;28;19931;-56
2022/08/18 04:28:30;;;;;;;;;;;;;;;;;;21077840;28;19931;-54
2022/08/18 04:38:32;;;;;;;;;;;;;;;;;;21077929;28;20269;-54
2022/08/18 04:48:37;;;;;;;;;;;;;;;;;;21077557;28;19969;-55
2022/08/18 04:58:39;;;;;;;;;;;;;;;;;;21076978;28;20351;-65
2022/08/18 05:08:40;;;;;;;;;;;;;;;;;;21075537;28;19931;-64
2022/08/18 05:18:42;;;;;;;;;;;;;;;;;;21082152;28;19924;-52
2022/08/18 05:28:44;;;;;;;;;;;;;;;;;;21090382;28;19928;-73
2022/08/18 05:38:46;;;;;;;;;;;;;;;;;;21089896;28;20359;-53
2022/08/18 05:48:48;;;;;;;;;;;;;;;;;;21089751;28;20291;-57
2022/08/18 05:58:50;;;;;;;;;;;;;;;;;;21087519;28;19925;-76
2022/08/18 06:08:52;;;;;;;;;;;;;;;;;;21086366;28;19932;-55
2022/08/18 06:18:54;;;;;;;;;;;;;;;;;;21085120;28;19930;-58
2022/08/18 06:28:56;;;;;;;;;;;;;;;;;;21085562;28;20027;-54
2022/08/18 06:38:58;;;;;;;;;;;;;;;;;;21091071;28;19924;-67
2022/08/18 06:49:02;;;;;;;;;;;;;;;;;;21083465;28;19985;-54
2022/08/18 06:59:03;;;;;;;;;;;;;;;;;;21083024;28;19924;-54
2022/08/18 07:09:05;;;;;;;;;;;;;;;;;;21082012;28;20013;-55
2022/08/18 07:19:06;;;;;;;;;;;;;;;;;;21084482;28;19928;-54
2022/08/18 07:29:10;;;;;;;;;;;;;;;;;;21098999;28;19931;-76
2022/08/18 07:39:11;;;;;;;;;;;;;;;;;;21092447;28;20309;-75
2022/08/18 07:49:13;;;;;;;;;;;;;;;;;;21081950;28;19924;-77
2022/08/18 07:59:16;;;;;;;;;;;;;;;;;;21078418;28;19928;-55
2022/08/18 08:09:17;;;;;;;;;;;;;;;;;;21078122;28;20015;-76
2022/08/18 08:19:22;;;;;;;;;;;;;;;;;;21077424;28;19924;-73
2022/08/18 08:29:24;;;;;;;;;;;;;;;;;;21076840;28;19992;-76
2022/08/18 08:39:27;;;;;;;;;;;;;;;;;;21076881;28;20374;-77
2022/08/18 08:49:28;;;;;;;;;;;;;;;;;;21077107;28;19935;-78
2022/08/18 08:59:30;;;;;;;;;;;;;;;;;;21093333;28;19924;-76
2022/08/18 09:09:32;;;;;;;;;;;;;;;;;;21094425;28;20395;-74
2022/08/18 09:19:33;;;;;;;;;;;;;;;;;;21092475;28;19985;-65
2022/08/18 09:29:36;;;;;;;;;;;;;;;;;;21090939;28;20055;-73
2022/08/18 09:50:01;;;;;;;;;;;;;;;;;;21089036;28;20141;-65
2022/08/18 10:00:03;;;;;;;;;;;;;;;;;;21088105;28;19924;-54
2022/08/18 10:10:06;;;;;;;;;;;;;;;;;;21087294;28;19969;-64
2022/08/18 10:20:07;;;;;;;;;;;;;;;;;;21089700;28;19924;-58
2022/08/18 10:30:10;;;;;;;;;;;;;;;;;;21088867;28;19924;-69
2022/08/18 10:40:12;;;;;;;;;;;;;;;;;;21090440;28;19939;-69
2022/08/18 10:50:14;;;;;;;;;;;;;;;;;;21089664;28;19924;-70
2022/08/18 11:00:17;;;;;;;;;;;;;;;;;;21083763;28;20003;-58
2022/08/18 11:10:18;;;;;;;;;;;;;;;;;;21082736;28;20376;-60
2022/08/18 11:20:20;;;;;;;;;;;;;;;;;;21080843;28;19924;-55
2022/08/18 11:30:22;;;;;;;;;;;;;;;;;;21083726;28;20014;-54
2022/08/18 11:40:24;;;;;;;;;;;;;;;;;;21080539;28;19924;-55
2022/08/18 11:50:26;;;;;;;;;;;;;;;;;;21079927;28;19942;-55
2022/08/18 12:00:30;;;;;;;;;;;;;;;;;;21080198;28;20259;-63
2022/08/18 12:10:32;;;;;;;;;;;;;;;;;;21081415;28;19924;-71
2022/08/18 12:20:34;;;;;;;;;;;;;;;;;;21078539;28;19924;-70
2022/08/18 12:30:36;;;;;;;;;;;;;;;;;;21090585;28;19932;-54
2022/08/18 12:40:38;;;;;;;;;;;;;;;;;;21094154;28;20022;-57
2022/08/18 12:50:40;;;;;;;;;;;;;;;;;;21094453;28;20447;-55
2022/08/18 13:00:42;;;;;;;;;;;;;;;;;;21093527;28;20031;-78
2022/08/18 13:10:43;;;;;;;;;;;;;;;;;;21092640;28;20380;-56
2022/08/18 13:20:46;;;;;;;;;;;;;;;;;;21091152;28;19942;-71
2022/08/18 13:30:49;;;;;;;;;;;;;;;;;;21091180;28;19924;-55
2022/08/18 13:40:51;;;;;;;;;;;;;;;;;;21089021;28;19931;-54
2022/08/18 13:50:53;;;;;;;;;;;;;;;;;;21088799;28;19931;-56
2022/08/18 14:00:56;;;;;;;;;;;;;;;;;;21090193;28;19931;-71
2022/08/18 14:10:57;;;;;;;;;;;;;;;;;;21089820;28;19924;-67
2022/08/18 14:31:21;;;;;;;;;;;;;;;;;;21085703;28;19931;-57
2022/08/18 14:41:23;;;;;;;;;;;;;;;;;;21085259;28;20009;-60
2022/08/18 14:51:25;;;;;;;;;;;;;;;;;;21086212;28;19924;-56
2022/08/18 15:01:27;;;;;;;;;;;;;;;;;;21089457;28;19995;-59
2022/08/18 15:11:29;;;;;;;;;;;;;;;;;;21096994;28;19949;-56
2022/08/18 15:31:52;;;;;;;;;;;;;;;;;;21085109;28;19924;-56
2022/08/18 15:41:54;;;;;;;;;;;;;;;;;;21086520;28;19971;-75
2022/08/18 15:51:57;;;;;;;;;;;;;;;;;;21082686;28;20265;-72
2022/08/18 16:01:59;;;;;;;;;;;;;;;;;;21078980;28;19924;-74
2022/08/18 16:12:01;;;;;;;;;;;;;;;;;;21080606;28;19947;-56
2022/08/18 16:22:05;;;;;;;;;;;;;;;;;;21078605;28;20289;-75
2022/08/18 16:32:07;;;;;;;;;;;;;;;;;;21077701;28;19935;-57
2022/08/18 16:42:09;;;;;;;;;;;;;;;;;;21077635;28;19925;-58
2022/08/18 16:52:12;;;;;;;;;;;;;;;;;;21077419;28;20030;-71
2022/08/18 17:12:36;;;;;;;;;;;;;;;;;;20991002;28;19925;-66
2022/08/18 17:22:38;;;;;;;;;;;;;;;;;;21007119;28;19924;-55
2022/08/18 17:32:40;;;;;;;;;;;;;;;;;;21000408;28;19925;-71
2022/08/18 17:42:42;;;;;;;;;;;;;;;;;;21012805;28;19967;-65
2022/08/18 17:52:44;;;;;;;;;;;;;;;;;;21089688;28;20027;-56
2022/08/18 18:02:46;;;;;;;;;;;;;;;;;;21088046;28;20018;-73
2022/08/18 18:12:49;;;;;;;;;;;;;;;;;;21088646;28;20013;-60
2022/08/18 18:22:51;;;;;;;;;;;;;;;;;;21086393;28;20383;-56
2022/08/18 18:32:53;;;;;;;;;;;;;;;;;;21087453;28;19924;-56
2022/08/18 18:42:55;;;;;;;;;;;;;;;;;;21086136;28;20372;-58
2022/08/18 18:52:56;;;;;;;;;;;;;;;;;;21084415;28;19924;-66
2022/08/18 19:03:01;;;;;;;;;;;;;;;;;;21083452;28;19924;-73
2022/08/18 19:13:03;;;;;;;;;;;;;;;;;;21095657;28;20404;-66
2022/08/18 19:23:05;;;;;;;;;;;;;;;;;;21084456;28;19963;-76
2022/08/18 19:33:09;;;;;;;;;;;;;;;;;;21091306;28;19928;-54
2022/08/18 19:43:11;;;;;;;;;;;;;;;;;;21089480;28;20277;-54
2022/08/18 19:53:13;;;;;;;;;;;;;;;;;;21081097;28;19924;-77
2022/08/18 20:03:14;;;;;;;;;;;;;;;;;;21081399;28;19960;-73
2022/08/18 20:13:17;;;;;;;;;;;;;;;;;;21083771;28;19928;-56
2022/08/18 20:23:20;;;;;;;;;;;;;;;;;;21079516;28;19932;-75
2022/08/18 20:33:21;;;;;;;;;;;;;;;;;;21078586;28;20292;-68
2022/08/18 20:43:25;;;;;;;;;;;;;;;;;;21078391;28;20359;-56
2022/08/18 20:53:27;;;;;;;;;;;;;;;;;;21092668;28;19928;-55
2022/08/18 21:03:29;;;;;;;;;;;;;;;;;;21097479;28;19924;-54
2022/08/18 21:13:31;;;;;;;;;;;;;;;;;;21093565;28;19927;-53
2022/08/18 21:23:33;;;;;;;;;;;;;;;;;;21093942;28;19964;-58
2022/08/18 21:33:35;;;;;;;;;;;;;;;;;;21092829;28;20026;-76
2022/08/18 21:43:44;;;;;;;;;;;;;;;;;;21093055;28;19924;-56
2022/08/18 21:54:06;;;;;;;;;;;;;;;;;;21090529;28;19931;-76
2022/08/18 22:04:13;;;;;;;;;;;;;;;;;;21090234;28;19947;-74
2022/08/18 22:14:35;;;;;;;;;;;;;;;;;;21088626;28;19993;-73
2022/08/18 22:24:56;;;;;;;;;;;;;;;;;;21088437;28;19932;-75
2022/08/18 22:35:18;;;;;;;;;;;;;;;;;;21087602;28;20376;-55
2022/08/18 22:45:39;;;;;;;;;;;;;;;;;;21088952;28;19928;-66
2022/08/18 22:56:01;;;;;;;;;;;;;;;;;;21093574;28;19936;-55
2022/08/18 23:06:20;;;;;;;;;;;;;;;;;;21084857;28;19977;-57
2022/08/18 23:16:34;;;;;;;;;;;;;;;;;;21083434;28;20384;-74
2022/08/18 23:26:48;;;;;;;;;;;;;;;;;;21086335;28;19971;-54
2022/08/18 23:37:10;;;;;;;;;;;;;;;;;;21092951;28;19930;-75
2022/08/18 23:47:19;;;;;;;;;;;;;;;;;;21081956;28;19928;-69
2022/08/18 23:57:22;;;;;;;;;;;;;;;;;;21080689;28;19925;-75
